createdAt,value
2019-02-05T00:00:45.382Z,3.70
2019-02-05T00:03:16.947Z,3.70
2019-02-05T00:05:45.849Z,3.70
2019-02-05T00:08:14.717Z,3.70
2019-02-05T00:10:43.602Z,3.60
2019-02-05T00:13:12.843Z,3.60
2019-02-05T00:15:41.663Z,3.60
2019-02-05T00:18:10.523Z,3.50
2019-02-05T00:20:39.484Z,3.50
2019-02-05T00:23:08.267Z,3.50
2019-02-05T00:25:37.142Z,3.40
2019-02-05T00:28:06.075Z,3.30
2019-02-05T00:30:35.030Z,3.20
2019-02-05T00:33:04.397Z,3.20
2019-02-05T00:35:33.244Z,3.20
2019-02-05T00:38:02.232Z,3.20
2019-02-05T00:40:31.099Z,3.10
2019-02-05T00:42:59.998Z,3.10
2019-02-05T00:45:28.810Z,3.10
2019-02-05T00:47:57.707Z,3.10
2019-02-05T00:50:26.583Z,3.10
2019-02-05T00:52:55.493Z,3.10
2019-02-05T00:55:24.403Z,3.20
2019-02-05T00:57:53.391Z,3.20
2019-02-05T01:00:25.374Z,3.10
2019-02-05T01:02:54.663Z,3.10
2019-02-05T01:05:23.768Z,3.20
2019-02-05T01:07:52.938Z,3.10
2019-02-05T01:10:22.675Z,3.10
2019-02-05T01:12:51.763Z,3.10
2019-02-05T01:15:21.275Z,3.10
2019-02-05T01:17:50.207Z,3.00
2019-02-05T01:20:19.293Z,3.00
2019-02-05T01:22:48.553Z,3.00
2019-02-05T01:25:17.917Z,2.90
2019-02-05T01:27:47.517Z,2.90
2019-02-05T01:30:21.715Z,2.80
2019-02-05T01:32:50.775Z,2.70
2019-02-05T01:35:19.729Z,2.60
2019-02-05T01:37:48.680Z,2.50
2019-02-05T01:40:19.329Z,2.50
2019-02-05T01:42:48.562Z,2.40
2019-02-05T01:45:18.937Z,2.40
2019-02-05T01:47:47.908Z,2.40
2019-02-05T01:50:19.786Z,2.30
2019-02-05T01:52:48.662Z,2.30
2019-02-05T01:55:18.564Z,2.30
2019-02-05T01:57:47.555Z,2.30
2019-02-05T02:00:30.610Z,2.30
2019-02-05T02:02:58.617Z,2.30
2019-02-05T02:05:27.631Z,2.30
2019-02-05T02:07:56.978Z,2.30
2019-02-05T02:10:27.575Z,2.30
2019-02-05T02:12:56.666Z,2.30
2019-02-05T02:15:25.630Z,2.30
2019-02-05T02:17:54.696Z,2.30
2019-02-05T02:20:23.675Z,2.30
2019-02-05T02:22:52.636Z,2.30
2019-02-05T02:25:21.787Z,2.30
2019-02-05T02:27:51.251Z,2.30
2019-02-05T02:30:29.256Z,2.30
2019-02-05T02:32:58.275Z,2.30
2019-02-05T02:35:27.358Z,2.30
2019-02-05T02:37:56.674Z,2.30
2019-02-05T02:40:25.573Z,2.30
2019-02-05T02:42:54.446Z,2.30
2019-02-05T02:45:23.414Z,2.30
2019-02-05T02:47:52.447Z,2.30
2019-02-05T02:50:21.486Z,2.30
2019-02-05T02:52:51.203Z,2.30
2019-02-05T02:55:20.483Z,2.30
2019-02-05T02:57:49.608Z,2.30
2019-02-05T03:00:19.681Z,2.30
2019-02-05T03:02:49.008Z,2.30
2019-02-05T03:05:20.123Z,2.30
2019-02-05T03:07:49.391Z,2.30
2019-02-05T03:10:20.753Z,2.30
2019-02-05T03:12:49.744Z,2.30
2019-02-05T03:15:18.691Z,2.30
2019-02-05T03:17:47.726Z,2.30
2019-02-05T03:20:17.138Z,2.30
2019-02-05T03:22:46.217Z,2.30
2019-02-05T03:25:17.586Z,2.30
2019-02-05T03:27:46.655Z,2.30
2019-02-05T03:30:17.923Z,2.30
2019-02-05T03:32:46.887Z,2.30
2019-02-05T03:35:16.467Z,2.30
2019-02-05T03:37:45.492Z,2.30
2019-02-05T03:41:06.908Z,2.30
2019-02-05T03:43:37.255Z,2.40
2019-02-05T03:46:11.254Z,2.30
2019-02-05T03:48:41.590Z,2.40
2019-02-05T03:51:38.283Z,2.40
2019-02-05T03:54:45.918Z,2.40
2019-02-05T03:57:37.524Z,2.40
2019-02-05T04:00:39.518Z,2.30
2019-02-05T04:03:48.047Z,2.40
2019-02-05T04:06:31.974Z,2.40
2019-02-05T04:09:26.133Z,2.30
2019-02-05T04:12:20.780Z,2.30
2019-02-05T04:15:15.424Z,2.30
2019-02-05T04:18:14.638Z,2.30
2019-02-05T04:21:16.253Z,2.30
2019-02-05T04:24:15.479Z,2.30
2019-02-05T04:27:20.759Z,2.30
2019-02-05T04:30:40.002Z,2.30
2019-02-05T04:33:54.738Z,2.40
2019-02-05T04:37:04.778Z,2.30
2019-02-05T04:40:05.880Z,2.40
2019-02-05T04:43:31.226Z,2.40
2019-02-05T04:46:20.560Z,2.40
2019-02-05T04:49:21.888Z,2.40
2019-02-05T04:52:26.653Z,2.40
2019-02-05T04:55:36.675Z,2.40
2019-02-05T04:59:04.776Z,2.40
2019-02-05T05:01:44.737Z,2.40
2019-02-05T05:04:26.894Z,2.40
2019-02-05T05:07:52.184Z,2.40
2019-02-05T05:10:21.062Z,2.40
2019-02-05T05:12:49.963Z,2.40
2019-02-05T05:15:18.990Z,2.40
2019-02-05T05:17:47.822Z,2.40
2019-02-05T05:20:16.857Z,2.40
2019-02-05T05:22:46.300Z,2.40
2019-02-05T05:25:15.331Z,2.40
2019-02-05T05:27:44.299Z,2.40
2019-02-05T05:30:16.599Z,2.40
2019-02-05T05:32:45.542Z,2.40
2019-02-05T05:35:14.708Z,2.30
2019-02-05T05:37:43.554Z,2.30
2019-02-05T05:40:12.868Z,2.30
2019-02-05T05:42:41.779Z,2.30
2019-02-05T05:45:13.330Z,2.30
2019-02-05T05:47:42.205Z,2.30
2019-02-05T05:50:13.972Z,2.30
2019-02-05T05:52:42.877Z,2.30
2019-02-05T05:55:12.258Z,2.30
2019-02-05T05:57:41.153Z,2.30
2019-02-05T06:00:16.343Z,2.30
2019-02-05T06:02:45.320Z,2.30
2019-02-05T06:05:15.822Z,2.30
2019-02-05T06:07:44.870Z,2.30
2019-02-05T06:10:15.044Z,2.30
2019-02-05T06:12:44.027Z,2.30
2019-02-05T06:15:13.421Z,2.30
2019-02-05T06:17:42.438Z,2.30
2019-02-05T06:20:14.373Z,2.30
2019-02-05T06:22:43.331Z,2.30
2019-02-05T06:25:12.747Z,2.30
2019-02-05T06:27:41.871Z,2.30
2019-02-05T06:30:12.134Z,2.30
2019-02-05T06:32:41.083Z,2.30
2019-02-05T06:35:10.862Z,2.30
2019-02-05T06:37:39.830Z,2.30
2019-02-05T06:40:10.203Z,2.30
2019-02-05T06:42:39.208Z,2.30
2019-02-05T06:45:10.854Z,2.30
2019-02-05T06:47:39.886Z,2.30
2019-02-05T06:50:10.035Z,2.30
2019-02-05T06:52:39.106Z,2.30
2019-02-05T06:55:08.646Z,2.30
2019-02-05T06:57:37.624Z,2.40
2019-02-05T07:00:10.535Z,2.30
2019-02-05T07:02:39.432Z,2.30
2019-02-05T07:05:09.610Z,2.30
2019-02-05T07:07:38.454Z,2.30
2019-02-05T07:10:10.562Z,2.30
2019-02-05T07:12:39.456Z,2.30
2019-02-05T07:15:08.962Z,2.30
2019-02-05T07:17:48.919Z,2.30
2019-02-05T07:20:09.299Z,2.40
2019-02-05T07:22:38.208Z,2.40
2019-02-05T07:25:09.109Z,2.40
2019-02-05T07:27:38.001Z,2.40
2019-02-05T07:30:09.352Z,2.40
2019-02-05T07:32:38.182Z,2.40
2019-02-05T07:35:07.414Z,2.40
2019-02-05T07:37:36.447Z,2.40
2019-02-05T07:40:07.578Z,2.40
2019-02-05T07:42:36.748Z,2.40
2019-02-05T07:45:07.611Z,2.40
2019-02-05T07:47:36.486Z,2.40
2019-02-05T07:50:07.348Z,2.40
2019-02-05T07:52:36.299Z,2.40
2019-02-05T07:55:05.760Z,2.40
2019-02-05T07:57:34.669Z,2.40
2019-02-05T08:00:05.438Z,2.40
2019-02-05T08:02:34.243Z,2.40
2019-02-05T08:05:03.227Z,2.40
2019-02-05T08:07:32.200Z,2.50
2019-02-05T08:10:01.166Z,2.40
2019-02-05T08:12:30.057Z,2.50
2019-02-05T08:14:58.964Z,2.50
2019-02-05T08:17:27.917Z,2.50
2019-02-05T08:19:57.086Z,2.60
2019-02-05T08:22:25.963Z,2.50
2019-02-05T08:24:54.863Z,2.60
2019-02-05T08:27:23.751Z,2.60
2019-02-05T08:29:52.631Z,2.60
2019-02-05T08:32:21.682Z,2.60
2019-02-05T08:34:50.479Z,2.60
2019-02-05T08:37:19.760Z,2.60
2019-02-05T08:39:48.769Z,2.60
2019-02-05T08:42:17.791Z,2.60
2019-02-05T08:44:46.667Z,2.70
2019-02-05T08:47:15.619Z,2.60
2019-02-05T08:49:44.596Z,2.70
2019-02-05T08:52:13.575Z,2.70
2019-02-05T08:54:42.666Z,2.70
2019-02-05T08:57:11.589Z,2.70
2019-02-05T08:59:40.484Z,2.80
2019-02-05T09:02:09.640Z,2.80
2019-02-05T09:04:38.519Z,2.70
2019-02-05T09:07:07.563Z,2.80
2019-02-05T09:09:36.451Z,2.80
2019-02-05T09:12:05.832Z,2.80
2019-02-05T09:14:34.715Z,2.80
2019-02-05T09:17:03.686Z,2.80
2019-02-05T09:19:32.575Z,2.80
2019-02-05T09:22:01.550Z,2.80
2019-02-05T09:24:30.450Z,2.90
2019-02-05T09:26:59.414Z,2.90
2019-02-05T09:29:33.337Z,2.90
2019-02-05T09:31:58.829Z,2.90
2019-02-05T09:34:27.787Z,2.90
2019-02-05T09:36:56.659Z,2.90
2019-02-05T09:39:25.635Z,2.90
2019-02-05T09:41:54.592Z,2.90
2019-02-05T09:44:24.055Z,2.90
2019-02-05T09:46:53.086Z,2.90
2019-02-05T09:49:21.995Z,2.90
2019-02-05T09:51:50.860Z,2.90
2019-02-05T09:54:19.822Z,2.90
2019-02-05T09:56:48.726Z,3.00
2019-02-05T09:59:17.639Z,3.00
2019-02-05T10:01:46.938Z,3.00
2019-02-05T10:04:15.888Z,3.00
2019-02-05T10:06:44.938Z,3.10
2019-02-05T10:09:13.816Z,3.10
2019-02-05T10:11:42.714Z,3.10
2019-02-05T10:14:11.678Z,3.10
2019-02-05T10:16:40.654Z,3.20
2019-02-05T10:19:10.035Z,3.20
2019-02-05T10:21:38.926Z,3.20
2019-02-05T10:24:07.961Z,3.20
2019-02-05T10:26:37.030Z,3.20
2019-02-05T10:29:06.036Z,3.10
2019-02-05T10:31:35.022Z,3.10
2019-02-05T10:34:04.114Z,3.10
2019-02-05T10:36:33.388Z,3.20
2019-02-05T10:39:02.214Z,3.20
2019-02-05T10:41:31.362Z,3.30
2019-02-05T10:44:00.310Z,3.30
2019-02-05T10:46:29.225Z,3.30
2019-02-05T10:48:58.106Z,3.30
2019-02-05T10:51:27.019Z,3.30
2019-02-05T10:53:55.840Z,3.30
2019-02-05T10:56:24.754Z,3.30
2019-02-05T10:58:53.794Z,3.40
2019-02-05T11:01:22.763Z,3.40
2019-02-05T11:03:51.626Z,3.40
2019-02-05T11:06:20.601Z,3.40
2019-02-05T11:08:49.569Z,3.40
2019-02-05T11:11:18.533Z,3.50
2019-02-05T11:13:47.506Z,3.40
2019-02-05T11:16:16.535Z,3.40
2019-02-05T11:18:45.443Z,3.50
2019-02-05T11:21:14.334Z,3.50
2019-02-05T11:23:43.222Z,3.40
2019-02-05T11:26:12.199Z,3.40
2019-02-05T11:28:41.186Z,3.40
2019-02-05T11:31:10.147Z,3.40
2019-02-05T11:33:39.207Z,3.40
2019-02-05T11:36:08.257Z,3.40
2019-02-05T11:38:37.156Z,3.40
2019-02-05T11:41:06.122Z,3.40
2019-02-05T11:43:35.480Z,3.40
2019-02-05T11:46:04.719Z,3.40
2019-02-05T11:48:33.693Z,3.50
2019-02-05T11:51:02.650Z,3.50
2019-02-05T11:53:31.626Z,3.50
2019-02-05T11:56:00.612Z,3.50
2019-02-05T11:58:29.522Z,3.50
2019-02-05T12:01:04.062Z,3.50
2019-02-05T12:03:33.122Z,3.50
2019-02-05T12:06:02.093Z,3.50
2019-02-05T12:08:31.080Z,3.50
2019-02-05T12:11:00.035Z,3.60
2019-02-05T12:13:28.919Z,3.60
2019-02-05T12:15:57.956Z,3.60
2019-02-05T12:18:27.218Z,3.60
2019-02-05T12:20:56.198Z,3.50
2019-02-05T12:23:25.253Z,3.50
2019-02-05T12:25:54.132Z,3.50
2019-02-05T12:28:23.039Z,3.60
2019-02-05T12:30:52.054Z,3.50
2019-02-05T12:33:21.061Z,3.50
2019-02-05T12:35:50.023Z,3.50
2019-02-05T12:38:19.163Z,3.50
2019-02-05T12:40:48.257Z,3.60
2019-02-05T12:43:17.366Z,3.60
2019-02-05T12:45:46.384Z,3.60
2019-02-05T12:48:15.530Z,3.60
2019-02-05T12:50:44.878Z,3.70
2019-02-05T12:53:13.961Z,3.70
2019-02-05T12:55:42.955Z,3.70
2019-02-05T12:58:11.916Z,3.70
2019-02-05T13:00:43.123Z,3.70
2019-02-05T13:03:12.659Z,3.70
2019-02-05T13:05:42.843Z,3.70
2019-02-05T13:08:11.771Z,3.70
2019-02-05T13:10:44.525Z,3.70
2019-02-05T13:13:13.616Z,3.70
2019-02-05T13:15:42.674Z,3.70
2019-02-05T13:18:11.621Z,3.70
2019-02-05T13:20:41.047Z,3.70
2019-02-05T13:23:10.543Z,3.70
2019-02-05T13:25:39.842Z,3.70
2019-02-05T13:28:10.914Z,3.80
2019-02-05T13:30:40.072Z,3.80
2019-02-05T13:33:09.217Z,3.80
2019-02-05T13:35:38.806Z,3.80
2019-02-05T13:38:07.879Z,3.80
2019-02-05T13:40:38.339Z,3.80
2019-02-05T13:43:07.826Z,3.80
2019-02-05T13:45:37.378Z,3.80
2019-02-05T13:48:07.424Z,3.70
2019-02-05T13:50:36.690Z,3.70
2019-02-05T13:53:06.663Z,3.80
2019-02-05T13:55:40.702Z,3.80
2019-02-05T13:58:10.183Z,3.80
2019-02-05T14:00:41.502Z,3.70
2019-02-05T14:03:11.273Z,3.80
2019-02-05T14:05:40.353Z,3.80
2019-02-05T14:08:09.628Z,3.80
2019-02-05T14:10:39.017Z,3.80
2019-02-05T14:13:08.244Z,3.80
2019-02-05T14:15:38.875Z,3.80
2019-02-05T14:18:08.986Z,3.70
2019-02-05T14:20:38.055Z,3.70
2019-02-05T14:23:07.071Z,3.70
2019-02-05T14:25:36.059Z,3.70
2019-02-05T14:28:05.294Z,3.70
2019-02-05T14:30:39.776Z,3.70
2019-02-05T14:33:08.802Z,3.70
2019-02-05T14:35:38.105Z,3.70
2019-02-05T14:38:08.382Z,3.70
2019-02-05T14:40:37.409Z,3.70
2019-02-05T14:43:07.188Z,3.70
2019-02-05T14:45:36.862Z,3.70
2019-02-05T14:48:07.130Z,3.70
2019-02-05T14:50:36.148Z,3.70
2019-02-05T14:53:06.670Z,3.70
2019-02-05T14:55:35.626Z,3.70
2019-02-05T14:58:05.655Z,3.70
2019-02-05T15:00:34.695Z,3.70
2019-02-05T15:03:04.855Z,3.70
2019-02-05T15:05:33.911Z,3.70
2019-02-05T15:08:05.757Z,3.70
2019-02-05T15:10:33.533Z,3.70
2019-02-05T15:13:02.521Z,3.70
2019-02-05T15:15:32.075Z,3.70
2019-02-05T15:18:01.001Z,3.70
2019-02-05T15:20:34.543Z,3.60
2019-02-05T15:23:04.111Z,3.70
2019-02-05T15:25:32.971Z,3.70
2019-02-05T15:28:02.131Z,3.70
2019-02-05T15:30:39.624Z,3.60
2019-02-05T15:33:21.690Z,3.70
2019-02-05T15:35:53.593Z,3.60
2019-02-05T15:38:22.650Z,3.60
2019-02-05T15:40:51.576Z,3.60
2019-02-05T15:43:20.532Z,3.60
2019-02-05T15:45:49.543Z,3.60
2019-02-05T15:48:18.436Z,3.60
2019-02-05T15:50:47.303Z,3.60
2019-02-05T15:53:16.194Z,3.50
2019-02-05T15:55:45.534Z,3.50
2019-02-05T15:58:14.503Z,3.50
2019-02-05T16:00:43.442Z,3.50
2019-02-05T16:03:12.323Z,3.50
2019-02-05T16:05:41.129Z,3.50
2019-02-05T16:08:10.003Z,3.50
2019-02-05T16:10:39.251Z,3.40
2019-02-05T16:13:08.076Z,3.40
2019-02-05T16:15:37.082Z,3.40
2019-02-05T16:18:25.289Z,3.40
2019-02-05T16:20:54.207Z,3.40
2019-02-05T16:23:23.287Z,3.40
2019-02-05T16:25:52.223Z,3.40
2019-02-05T16:28:21.212Z,3.40
2019-02-05T16:30:50.202Z,3.50
2019-02-05T16:33:19.098Z,3.40
2019-02-05T16:35:47.921Z,3.40
2019-02-05T16:38:17.206Z,3.40
2019-02-05T16:40:46.349Z,3.40
2019-02-05T16:43:15.346Z,3.50
2019-02-05T16:45:45.436Z,3.40
2019-02-05T16:48:14.573Z,3.40
2019-02-05T16:50:44.731Z,3.40
2019-02-05T16:53:14.017Z,3.40
2019-02-05T16:55:43.073Z,3.40
2019-02-05T16:58:12.247Z,3.40
2019-02-05T17:00:41.464Z,3.40
2019-02-05T17:03:10.450Z,3.40
2019-02-05T17:05:40.867Z,3.40
2019-02-05T17:08:10.510Z,3.40
2019-02-05T17:10:39.539Z,3.40
2019-02-05T17:13:11.482Z,3.40
2019-02-05T17:15:39.283Z,3.40
2019-02-05T17:18:08.363Z,3.30
2019-02-05T17:20:37.780Z,3.30
2019-02-05T17:23:07.248Z,3.30
2019-02-05T17:25:36.446Z,3.30
2019-02-05T17:28:06.103Z,3.30
2019-02-05T17:30:37.234Z,3.30
2019-02-05T17:33:07.025Z,3.30
2019-02-05T17:35:37.171Z,3.30
2019-02-05T17:38:09.482Z,3.30
2019-02-05T17:40:38.530Z,3.30
2019-02-05T17:43:07.930Z,3.30
2019-02-05T17:45:38.920Z,3.30
2019-02-05T17:48:10.351Z,3.30
2019-02-05T17:50:39.404Z,3.20
2019-02-05T17:53:08.449Z,3.30
2019-02-05T17:55:37.507Z,3.30
2019-02-05T17:58:06.647Z,3.20
2019-02-05T18:00:45.690Z,3.20
2019-02-05T18:03:14.740Z,3.20
2019-02-05T18:05:44.086Z,3.20
2019-02-05T18:08:13.392Z,3.20
2019-02-05T18:10:42.591Z,3.20
2019-02-05T18:13:11.731Z,3.20
2019-02-05T18:15:40.947Z,3.20
2019-02-05T18:18:10.418Z,3.20
2019-02-05T18:20:39.477Z,3.20
2019-02-05T18:23:08.802Z,3.20
2019-02-05T18:25:37.934Z,3.20
2019-02-05T18:28:07.176Z,3.20
2019-02-05T18:30:36.623Z,3.20
2019-02-05T18:33:06.214Z,3.20
2019-02-05T18:35:36.553Z,3.10
2019-02-05T18:38:06.955Z,3.10
2019-02-05T18:40:36.231Z,3.10
2019-02-05T18:43:05.706Z,3.10
2019-02-05T18:45:34.735Z,3.10
2019-02-05T18:48:03.706Z,3.10
2019-02-05T18:50:33.091Z,3.10
2019-02-05T18:53:02.480Z,3.10
2019-02-05T18:55:32.134Z,3.10
2019-02-05T18:58:08.947Z,3.10
2019-02-05T19:00:38.694Z,3.10
2019-02-05T19:03:14.878Z,3.10
2019-02-05T19:05:38.246Z,3.00
2019-02-05T19:08:07.968Z,3.00
2019-02-05T19:10:37.070Z,3.00
2019-02-05T19:13:06.551Z,2.90
2019-02-05T19:15:54.604Z,3.00
2019-02-05T19:18:23.642Z,3.00
2019-02-05T19:20:52.567Z,2.90
2019-02-05T19:23:21.560Z,3.00
2019-02-05T19:26:11.759Z,3.00
2019-02-05T19:28:41.588Z,3.00
2019-02-05T19:31:19.717Z,3.10
2019-02-05T19:33:48.575Z,3.10
2019-02-05T19:36:17.442Z,3.10
2019-02-05T19:38:46.835Z,3.10
2019-02-05T19:41:15.806Z,3.20
2019-02-05T19:43:44.776Z,3.20
2019-02-05T19:46:39.348Z,3.20
2019-02-05T19:49:21.715Z,3.20
2019-02-05T19:51:50.477Z,3.30
2019-02-05T19:54:20.026Z,3.20
2019-02-05T19:56:49.006Z,3.30
2019-02-05T19:59:18.599Z,3.30
2019-02-05T20:01:47.773Z,3.30
2019-02-05T20:04:16.868Z,3.20
2019-02-05T20:06:46.189Z,3.20
2019-02-05T20:09:15.451Z,3.30
2019-02-05T20:11:44.367Z,3.30
2019-02-05T20:14:15.096Z,3.20
2019-02-05T20:16:47.003Z,3.20
2019-02-05T20:19:17.124Z,3.10
2019-02-05T20:21:46.360Z,3.10
2019-02-05T20:24:15.835Z,3.10
2019-02-05T20:26:47.547Z,3.10
2019-02-05T20:29:16.779Z,3.00
2019-02-05T20:31:46.322Z,3.00
2019-02-05T20:34:15.702Z,2.90
2019-02-05T20:36:45.971Z,2.90
2019-02-05T20:39:17.020Z,2.90
2019-02-05T20:41:45.992Z,2.90
2019-02-05T20:44:15.173Z,2.90
2019-02-05T20:46:44.215Z,2.80
2019-02-05T20:49:14.096Z,2.80
2019-02-05T20:51:44.002Z,2.80
2019-02-05T20:54:19.418Z,2.80
2019-02-05T20:56:49.487Z,2.80
2019-02-05T20:59:19.376Z,2.80
2019-02-05T21:01:48.413Z,2.70
2019-02-05T21:04:17.612Z,2.70
2019-02-05T21:06:47.076Z,2.80
2019-02-05T21:09:20.507Z,2.70
2019-02-05T21:11:50.351Z,2.80
2019-02-05T21:14:20.117Z,2.80
2019-02-05T21:16:49.671Z,2.70
2019-02-05T21:19:19.630Z,2.70
2019-02-05T21:21:49.200Z,2.70
2019-02-05T21:24:18.728Z,2.70
2019-02-05T21:26:48.188Z,2.80
2019-02-05T21:29:17.530Z,2.70
2019-02-05T21:31:46.471Z,2.70
2019-02-05T21:34:16.223Z,2.70
2019-02-05T21:36:45.621Z,2.60
2019-02-05T21:39:15.243Z,2.70
2019-02-05T21:41:44.872Z,2.70
2019-02-05T21:44:13.952Z,2.70
2019-02-05T21:46:43.400Z,2.70
2019-02-05T21:49:12.791Z,2.70
2019-02-05T21:51:42.463Z,2.80
2019-02-05T21:54:12.626Z,2.70
2019-02-05T21:56:42.802Z,2.80
2019-02-05T21:59:11.905Z,2.70
2019-02-05T22:01:41.102Z,2.80
2019-02-05T22:04:10.335Z,2.70
2019-02-05T22:06:39.620Z,2.80
2019-02-05T22:09:11.874Z,2.80
2019-02-05T22:11:41.450Z,2.80
2019-02-05T22:14:10.567Z,2.80
2019-02-05T22:16:39.763Z,2.80
2019-02-05T22:19:09.685Z,2.80
2019-02-05T22:21:39.710Z,2.80
2019-02-05T22:24:09.168Z,2.80
2019-02-05T22:26:38.450Z,2.70
2019-02-05T22:29:08.299Z,2.70
2019-02-05T22:31:38.319Z,2.70
2019-02-05T22:34:09.454Z,2.80
2019-02-05T22:36:38.808Z,2.80
2019-02-05T22:39:10.436Z,2.80
2019-02-05T22:41:39.707Z,2.80
2019-02-05T22:44:08.826Z,2.80
2019-02-05T22:46:37.947Z,2.80
2019-02-05T22:49:07.577Z,2.80
2019-02-05T22:51:37.147Z,2.80
2019-02-05T22:54:06.582Z,2.80
2019-02-05T22:56:36.072Z,2.80
2019-02-05T22:59:05.731Z,2.80
2019-02-05T23:01:54.552Z,2.90
2019-02-05T23:05:16.209Z,2.90
2019-02-05T23:07:45.813Z,2.90
2019-02-05T23:11:03.725Z,3.00
2019-02-05T23:13:33.864Z,3.00
2019-02-05T23:16:03.121Z,3.00
2019-02-05T23:18:32.173Z,3.10
2019-02-05T23:21:01.176Z,3.20
2019-02-05T23:23:30.226Z,3.30
2019-02-05T23:25:59.186Z,3.30
2019-02-05T23:28:28.021Z,3.30
2019-02-05T23:30:56.889Z,3.30
2019-02-05T23:33:25.856Z,3.30
2019-02-05T23:35:54.727Z,3.40
2019-02-05T23:38:29.497Z,3.30
2019-02-05T23:40:54.090Z,3.30
2019-02-05T23:43:23.062Z,3.30
2019-02-05T23:46:01.309Z,3.30
2019-02-05T23:48:22.949Z,3.30
2019-02-05T23:50:51.804Z,3.20
2019-02-05T23:53:20.785Z,3.30
2019-02-05T23:55:49.734Z,3.20
2019-02-05T23:58:18.564Z,3.20
